createdAt,value
2017-08-04T00:01:18.656Z,99709.05
2017-08-04T00:03:46.623Z,99710.13
2017-08-04T00:06:14.254Z,99709.97
2017-08-04T00:08:41.880Z,99697.45
2017-08-04T00:11:09.573Z,99710.16
2017-08-04T00:13:37.203Z,99704.73
2017-08-04T00:16:04.981Z,99709.33
2017-08-04T00:18:32.667Z,99706.17
2017-08-04T00:21:00.291Z,99716.58
2017-08-04T00:23:28.233Z,99707.85
2017-08-04T00:25:55.978Z,99708.26
2017-08-04T00:28:23.997Z,99705.86
2017-08-04T00:30:51.831Z,99707.28
2017-08-04T00:33:19.577Z,99712.06
2017-08-04T00:35:47.543Z,99716.11
2017-08-04T00:38:15.462Z,99715.71
2017-08-04T00:40:43.536Z,99712.26
2017-08-04T00:43:11.593Z,99709.53
2017-08-04T00:45:39.336Z,99704.57
2017-08-04T00:48:07.340Z,99714.14
2017-08-04T00:50:35.195Z,99713.31
2017-08-04T00:53:03.189Z,99712.64
2017-08-04T00:55:30.864Z,99712.28
2017-08-04T00:57:58.535Z,99719.77
2017-08-04T01:00:26.439Z,99716.16
2017-08-04T01:02:54.135Z,99718.39
2017-08-04T01:05:21.970Z,99711.16
2017-08-04T01:07:49.716Z,99718.14
2017-08-04T01:10:17.682Z,99721.60
2017-08-04T01:12:45.602Z,99718.75
2017-08-04T01:15:13.225Z,99715.23
2017-08-04T01:17:40.932Z,99716.20
2017-08-04T01:20:08.541Z,99711.47
2017-08-04T01:22:36.157Z,99715.92
2017-08-04T01:25:03.833Z,99712.41
2017-08-04T01:27:31.479Z,99708.19
2017-08-04T01:29:59.108Z,99714.48
2017-08-04T01:32:26.772Z,99713.50
2017-08-04T01:34:54.401Z,99712.72
2017-08-04T01:37:22.020Z,99702.39
2017-08-04T01:39:49.892Z,99709.07
2017-08-04T01:42:17.633Z,99697.90
2017-08-04T01:44:45.277Z,99698.83
2017-08-04T01:47:12.987Z,99699.94
2017-08-04T01:49:40.596Z,99698.88
2017-08-04T01:52:08.213Z,99699.55
2017-08-04T01:54:35.892Z,99699.70
2017-08-04T01:57:03.524Z,99709.91
2017-08-04T01:59:32.060Z,99705.83
2017-08-04T02:01:59.748Z,99713.84
2017-08-04T02:04:27.377Z,99714.41
2017-08-04T02:06:55.098Z,99706.14
2017-08-04T02:09:22.772Z,99695.94
2017-08-04T02:11:50.391Z,99697.84
2017-08-04T02:14:17.990Z,99696.48
2017-08-04T02:16:45.657Z,99694.86
2017-08-04T02:19:13.272Z,99702.33
2017-08-04T02:21:40.923Z,99699.47
2017-08-04T02:24:08.628Z,99692.01
2017-08-04T02:26:36.256Z,99689.03
2017-08-04T02:29:03.880Z,99687.26
2017-08-04T02:31:31.606Z,99690.54
2017-08-04T02:33:59.225Z,99689.17
2017-08-04T02:36:26.851Z,99699.49
2017-08-04T02:38:54.543Z,99701.81
2017-08-04T02:41:22.172Z,99695.02
2017-08-04T02:43:49.786Z,99695.43
2017-08-04T02:46:17.529Z,99698.95
2017-08-04T02:48:45.160Z,99694.74
2017-08-04T02:51:12.769Z,99696.25
2017-08-04T02:53:40.443Z,99701.42
2017-08-04T02:56:08.104Z,99697.49
2017-08-04T02:58:35.731Z,99698.57
2017-08-04T03:01:03.416Z,99701.70
2017-08-04T03:03:31.032Z,99703.17
2017-08-04T03:05:58.672Z,99699.34
2017-08-04T03:08:26.354Z,99699.34
2017-08-04T03:10:53.976Z,99703.45
2017-08-04T03:13:21.604Z,99706.73
2017-08-04T03:15:49.278Z,99707.00
2017-08-04T03:18:16.890Z,99714.75
2017-08-04T03:20:44.501Z,99715.58
2017-08-04T03:23:12.185Z,99708.62
2017-08-04T03:25:39.816Z,99709.97
2017-08-04T03:28:07.445Z,99716.23
2017-08-04T03:30:35.189Z,99716.11
2017-08-04T03:33:02.802Z,99715.68
2017-08-04T03:35:30.432Z,99719.08
2017-08-04T03:37:58.097Z,99713.08
2017-08-04T03:40:25.734Z,99714.69
2017-08-04T03:42:53.355Z,99707.48
2017-08-04T03:45:21.042Z,99715.89
2017-08-04T03:47:48.728Z,99729.06
2017-08-04T03:50:16.352Z,99727.16
2017-08-04T03:52:44.025Z,99723.59
2017-08-04T03:55:11.639Z,99718.92
2017-08-04T03:57:39.469Z,99711.80
2017-08-04T04:00:07.423Z,99713.14
2017-08-04T04:02:35.025Z,99714.46
2017-08-04T04:05:02.648Z,99708.70
2017-08-04T04:07:30.305Z,99711.02
2017-08-04T04:09:57.910Z,99719.94
2017-08-04T04:12:25.536Z,99720.53
2017-08-04T04:14:53.207Z,99719.52
2017-08-04T04:17:20.824Z,99721.41
2017-08-04T04:19:48.430Z,99716.89
2017-08-04T04:22:16.136Z,99714.83
2017-08-04T04:24:43.753Z,99713.31
2017-08-04T04:27:11.392Z,99712.73
2017-08-04T04:29:39.107Z,99706.62
2017-08-04T04:32:06.752Z,99708.30
2017-08-04T04:34:34.507Z,99711.60
2017-08-04T04:37:02.171Z,99712.37
2017-08-04T04:39:29.797Z,99715.22
2017-08-04T04:41:57.416Z,99712.97
2017-08-04T04:44:25.089Z,99709.30
2017-08-04T04:46:52.704Z,99710.17
2017-08-04T04:49:20.321Z,99714.86
2017-08-04T04:51:47.996Z,99717.91
2017-08-04T04:54:15.623Z,99717.58
2017-08-04T04:56:43.241Z,99725.28
2017-08-04T04:59:10.921Z,99716.62
2017-08-04T05:01:38.545Z,99719.31
2017-08-04T05:04:06.161Z,99719.97
2017-08-04T05:06:33.840Z,99732.34
2017-08-04T05:09:01.467Z,99720.28
2017-08-04T05:11:29.086Z,99727.80
2017-08-04T05:13:56.749Z,99723.47
2017-08-04T05:16:24.354Z,99726.69
2017-08-04T05:18:51.957Z,99732.09
2017-08-04T05:21:19.632Z,99724.12
2017-08-04T05:23:47.251Z,99729.45
2017-08-04T05:26:14.852Z,99719.70
2017-08-04T05:28:42.541Z,99724.52
2017-08-04T05:31:10.172Z,99724.92
2017-08-04T05:33:37.811Z,99720.91
2017-08-04T05:36:05.589Z,99718.20
2017-08-04T05:38:33.274Z,99721.66
2017-08-04T05:41:00.931Z,99721.63
2017-08-04T05:43:28.597Z,99717.17
2017-08-04T05:45:56.216Z,99721.50
2017-08-04T05:48:23.821Z,99723.80
2017-08-04T05:50:51.638Z,99724.33
2017-08-04T05:53:19.267Z,99724.02
2017-08-04T05:55:46.894Z,99731.84
2017-08-04T05:58:14.577Z,99734.69
2017-08-04T06:00:42.212Z,99730.86
2017-08-04T06:03:09.885Z,99720.84
2017-08-04T06:05:37.568Z,99718.76
2017-08-04T06:08:05.185Z,99712.38
2017-08-04T06:10:32.795Z,99715.93
2017-08-04T06:13:00.477Z,99711.48
2017-08-04T06:15:28.104Z,99712.76
2017-08-04T06:17:55.720Z,99714.89
2017-08-04T06:20:23.366Z,99718.13
2017-08-04T06:22:50.994Z,99713.48
2017-08-04T06:25:18.605Z,99717.47
2017-08-04T06:27:46.279Z,99713.59
2017-08-04T06:30:13.886Z,99706.36
2017-08-04T06:32:41.514Z,99711.78
2017-08-04T06:35:09.186Z,99715.69
2017-08-04T06:37:36.787Z,99722.23
2017-08-04T06:40:04.421Z,99720.55
2017-08-04T06:42:32.087Z,99716.65
2017-08-04T06:44:59.716Z,99711.32
2017-08-04T06:47:27.342Z,99716.02
2017-08-04T06:50:06.730Z,99715.02
2017-08-04T06:52:46.233Z,99717.43
2017-08-04T06:55:35.743Z,99712.94
2017-08-04T06:58:03.377Z,99718.35
2017-08-04T07:00:30.996Z,99716.58
2017-08-04T07:02:58.669Z,99718.27
2017-08-04T07:05:26.277Z,99718.96
2017-08-04T07:07:53.896Z,99715.42
2017-08-04T07:10:21.567Z,99712.83
2017-08-04T07:12:49.174Z,99717.12
2017-08-04T07:15:16.773Z,99717.95
2017-08-04T07:17:44.439Z,99718.92
2017-08-04T07:20:12.056Z,99716.44
2017-08-04T07:22:39.662Z,99719.61
2017-08-04T07:25:07.329Z,99722.84
2017-08-04T07:27:34.960Z,99713.91
2017-08-04T07:30:02.594Z,99708.81
2017-08-04T07:32:30.260Z,99704.29
2017-08-04T07:34:57.873Z,99704.77
2017-08-04T07:37:25.483Z,99706.20
2017-08-04T07:39:53.167Z,99706.25
2017-08-04T07:42:20.776Z,99694.78
2017-08-04T07:44:48.401Z,99693.29
2017-08-04T07:47:16.102Z,99690.47
2017-08-04T07:49:43.755Z,99689.76
2017-08-04T07:52:11.372Z,99694.04
2017-08-04T07:54:39.140Z,99689.41
2017-08-04T07:57:06.769Z,99691.41
2017-08-04T07:59:34.390Z,99686.95
2017-08-04T08:02:02.045Z,99683.51
2017-08-04T08:04:29.715Z,99675.38
2017-08-04T08:06:57.334Z,99676.34
2017-08-04T08:09:25.008Z,99676.76
2017-08-04T08:11:52.619Z,99682.61
2017-08-04T08:14:20.239Z,99682.03
2017-08-04T08:16:47.882Z,99680.74
2017-08-04T08:19:15.489Z,99674.58
2017-08-04T08:21:43.093Z,99669.58
2017-08-04T08:24:10.763Z,99665.87
2017-08-04T08:26:38.363Z,99662.16
2017-08-04T08:29:05.968Z,99655.32
2017-08-04T08:31:33.646Z,99655.16
2017-08-04T08:34:01.268Z,99654.50
2017-08-04T08:36:28.885Z,99654.50
2017-08-04T08:38:56.575Z,99653.77
2017-08-04T08:41:24.253Z,99658.37
2017-08-04T08:43:51.881Z,99651.94
2017-08-04T08:46:19.557Z,99647.14
2017-08-04T08:48:47.153Z,99654.44
2017-08-04T08:51:14.765Z,99646.58
2017-08-04T08:53:42.422Z,99646.93
2017-08-04T08:56:10.088Z,99641.96
2017-08-04T08:58:37.690Z,99649.34
2017-08-04T09:01:05.349Z,99643.45
2017-08-04T09:03:32.937Z,99644.83
2017-08-04T09:06:00.524Z,99649.91
2017-08-04T09:08:28.339Z,99641.80
2017-08-04T09:10:55.976Z,99636.16
2017-08-04T09:13:23.595Z,99628.25
2017-08-04T09:15:51.268Z,99632.06
2017-08-04T09:18:18.892Z,99633.05
2017-08-04T09:20:46.516Z,99636.31
2017-08-04T09:23:14.186Z,99635.44
2017-08-04T09:25:41.805Z,99635.82
2017-08-04T09:28:09.428Z,99633.64
2017-08-04T09:30:37.084Z,99627.58
2017-08-04T09:33:04.778Z,99625.76
2017-08-04T09:35:32.399Z,99617.61
2017-08-04T09:38:00.088Z,99617.45
2017-08-04T09:40:27.702Z,99621.58
2017-08-04T09:42:55.323Z,99621.34
2017-08-04T09:45:23.681Z,99619.48
2017-08-04T09:47:51.361Z,99623.39
2017-08-04T09:50:18.969Z,99617.27
2017-08-04T09:52:46.643Z,99617.17
2017-08-04T09:55:14.259Z,99614.20
2017-08-04T09:57:42.144Z,99614.03
2017-08-04T10:00:09.828Z,99610.22
2017-08-04T10:02:37.434Z,99604.68
2017-08-04T10:05:05.034Z,99604.48
2017-08-04T10:07:32.720Z,99611.32
2017-08-04T10:10:00.334Z,99605.48
2017-08-04T10:12:27.948Z,99604.63
2017-08-04T10:14:55.637Z,99596.91
2017-08-04T10:17:23.262Z,99596.95
2017-08-04T10:19:50.877Z,99590.71
2017-08-04T10:22:18.585Z,99590.02
2017-08-04T10:24:46.190Z,99583.39
2017-08-04T10:27:15.921Z,99583.26
2017-08-04T10:29:43.799Z,99582.28
2017-08-04T10:32:11.450Z,99577.23
2017-08-04T10:34:39.059Z,99576.38
2017-08-04T10:37:06.721Z,99579.64
2017-08-04T10:39:34.329Z,99570.87
2017-08-04T10:42:01.941Z,99569.48
2017-08-04T10:44:29.610Z,99565.50
2017-08-04T10:46:57.209Z,99564.21
2017-08-04T10:49:24.806Z,99564.38
2017-08-04T10:51:52.476Z,99561.38
2017-08-04T10:54:20.091Z,99555.08
2017-08-04T10:56:47.697Z,99563.32
2017-08-04T10:59:15.602Z,99559.84
2017-08-04T11:01:43.232Z,99555.47
2017-08-04T11:04:10.835Z,99554.55
2017-08-04T11:06:38.509Z,99551.13
2017-08-04T11:09:06.168Z,99550.55
2017-08-04T11:11:33.779Z,99551.53
2017-08-04T11:14:01.452Z,99541.48
2017-08-04T11:16:29.070Z,99544.34
2017-08-04T11:18:56.674Z,99543.64
2017-08-04T11:21:24.615Z,99540.33
2017-08-04T11:23:52.229Z,99535.93
2017-08-04T11:26:19.846Z,99537.98
2017-08-04T11:28:47.554Z,99537.95
2017-08-04T11:31:15.166Z,99539.69
2017-08-04T11:33:42.775Z,99531.22
2017-08-04T11:36:10.451Z,99529.34
2017-08-04T11:38:38.060Z,99520.78
2017-08-04T11:41:05.679Z,99521.58
2017-08-04T11:43:33.356Z,99516.62
2017-08-04T11:46:00.980Z,99515.89
2017-08-04T11:48:28.598Z,99511.39
2017-08-04T11:50:56.268Z,99504.89
2017-08-04T11:53:23.884Z,99507.16
2017-08-04T11:55:51.515Z,99496.81
2017-08-04T11:58:19.201Z,99507.19
2017-08-04T12:00:46.863Z,99494.17
2017-08-04T12:03:14.479Z,99494.51
2017-08-04T12:05:42.161Z,99495.12
2017-08-04T12:08:09.896Z,99488.92
2017-08-04T12:10:37.868Z,99493.77
2017-08-04T12:13:05.551Z,99488.92
2017-08-04T12:15:33.165Z,99481.25
2017-08-04T12:18:00.762Z,99482.23
2017-08-04T12:20:28.432Z,99486.83
2017-08-04T12:22:56.151Z,99479.16
2017-08-04T12:25:23.768Z,99483.88
2017-08-04T12:27:51.426Z,99480.73
2017-08-04T12:30:19.060Z,99480.05
2017-08-04T12:32:46.692Z,99475.25
2017-08-04T12:35:14.359Z,99477.91
2017-08-04T12:37:41.981Z,99469.49
2017-08-04T12:40:09.601Z,99468.71
2017-08-04T12:42:37.272Z,99459.16
2017-08-04T12:45:04.879Z,99466.18
2017-08-04T12:47:32.486Z,99463.02
2017-08-04T12:50:00.169Z,99453.11
2017-08-04T12:52:27.784Z,99455.07
2017-08-04T12:54:55.383Z,99457.38
2017-08-04T12:57:23.056Z,99463.48
2017-08-04T12:59:50.849Z,99456.94
2017-08-04T13:02:18.537Z,99446.20
2017-08-04T13:04:46.203Z,99449.36
2017-08-04T13:07:13.801Z,99446.96
2017-08-04T13:09:41.397Z,99441.61
2017-08-04T13:12:09.045Z,99439.45
2017-08-04T13:14:36.663Z,99432.77
2017-08-04T13:17:04.292Z,99437.05
2017-08-04T13:19:31.953Z,99435.97
2017-08-04T13:21:59.559Z,99432.91
2017-08-04T13:24:27.172Z,99430.45
2017-08-04T13:26:54.832Z,99425.44
2017-08-04T13:29:22.426Z,99419.89
2017-08-04T13:31:50.006Z,99423.19
2017-08-04T13:34:17.652Z,99419.00
2017-08-04T13:36:45.264Z,99417.48
2017-08-04T13:39:12.871Z,99418.23
2017-08-04T13:41:40.534Z,99416.55
2017-08-04T13:44:08.248Z,99416.11
2017-08-04T13:46:35.867Z,99416.69
2017-08-04T13:49:03.517Z,99414.46
2017-08-04T13:51:31.255Z,99407.25
2017-08-04T13:53:59.220Z,99411.66
2017-08-04T13:56:26.919Z,99407.82
2017-08-04T13:58:54.525Z,99411.36
2017-08-04T14:01:22.115Z,99399.39
2017-08-04T14:03:49.905Z,99401.94
2017-08-04T14:06:17.506Z,99402.90
2017-08-04T14:08:45.445Z,99404.28
2017-08-04T14:11:13.105Z,99399.09
2017-08-04T14:13:40.769Z,99402.48
2017-08-04T14:16:08.362Z,99396.20
2017-08-04T14:18:36.021Z,99398.59
2017-08-04T14:21:03.861Z,99401.34
2017-08-04T14:23:31.723Z,99388.93
2017-08-04T14:25:59.486Z,99393.73
2017-08-04T14:28:27.358Z,99393.75
2017-08-04T14:30:55.200Z,99385.11
2017-08-04T14:33:24.791Z,99389.61
2017-08-04T14:35:52.395Z,99385.84
2017-08-04T14:38:19.996Z,99388.97
2017-08-04T14:40:47.710Z,99392.38
2017-08-04T14:43:15.327Z,99393.21
2017-08-04T14:45:42.943Z,99393.27
2017-08-04T14:48:10.632Z,99382.88
2017-08-04T14:50:38.236Z,99385.67
2017-08-04T14:53:05.845Z,99382.32
2017-08-04T14:55:33.511Z,99382.89
2017-08-04T14:58:01.115Z,99384.09
2017-08-04T15:00:29.010Z,99386.70
2017-08-04T15:02:56.867Z,99382.11
2017-08-04T15:05:24.796Z,99381.54
2017-08-04T15:07:52.660Z,99376.94
2017-08-04T15:10:20.630Z,99376.91
2017-08-04T15:12:48.449Z,99367.77
2017-08-04T15:15:16.312Z,99369.80
2017-08-04T15:17:44.288Z,99361.77
2017-08-04T15:20:12.123Z,99370.55
2017-08-04T15:22:40.019Z,99366.59
2017-08-04T15:25:07.881Z,99369.40
2017-08-04T15:27:35.602Z,99367.22
2017-08-04T15:30:03.439Z,99369.85
2017-08-04T15:32:31.463Z,99366.66
2017-08-04T15:34:59.211Z,99374.05
2017-08-04T15:37:27.001Z,99366.46
2017-08-04T15:39:54.675Z,99363.67
2017-08-04T15:42:22.504Z,99367.46
2017-08-04T15:44:50.209Z,99365.47
2017-08-04T15:47:18.298Z,99372.47
2017-08-04T15:49:45.906Z,99370.67
2017-08-04T15:52:13.513Z,99379.09
2017-08-04T15:54:41.159Z,99373.86
2017-08-04T15:57:08.747Z,99375.47
2017-08-04T15:59:36.366Z,99371.86
2017-08-04T16:02:04.024Z,99375.06
2017-08-04T16:04:31.619Z,99377.86
2017-08-04T16:06:59.781Z,99374.45
2017-08-04T16:09:27.854Z,99373.20
2017-08-04T16:11:55.461Z,99377.97
2017-08-04T16:14:23.080Z,99375.93
2017-08-04T16:16:50.738Z,99378.02
2017-08-04T16:19:18.346Z,99378.50
2017-08-04T16:21:45.962Z,99382.14
2017-08-04T16:24:13.621Z,99380.06
2017-08-04T16:26:41.217Z,99377.59
2017-08-04T16:29:08.877Z,99376.58
2017-08-04T16:31:36.525Z,99382.03
2017-08-04T16:34:04.130Z,99381.47
2017-08-04T16:36:31.748Z,99392.24
2017-08-04T16:38:59.412Z,99385.55
2017-08-04T16:41:27.011Z,99390.11
2017-08-04T16:43:54.612Z,99391.41
2017-08-04T16:46:22.281Z,99385.98
2017-08-04T16:48:51.634Z,99392.02
2017-08-04T16:51:19.437Z,99396.84
2017-08-04T16:53:47.100Z,99397.66
2017-08-04T16:56:14.720Z,99399.22
2017-08-04T16:58:42.332Z,99399.14
2017-08-04T17:01:10.003Z,99404.63
2017-08-04T17:03:37.596Z,99407.94
2017-08-04T17:06:05.203Z,99407.95
2017-08-04T17:08:32.869Z,99408.14
2017-08-04T17:11:00.472Z,99412.28
2017-08-04T17:13:28.137Z,99413.92
2017-08-04T17:15:55.829Z,99410.17
2017-08-04T17:18:23.465Z,99416.64
2017-08-04T17:20:51.084Z,99414.00
2017-08-04T17:23:18.741Z,99411.02
2017-08-04T17:25:46.335Z,99414.55
2017-08-04T17:28:13.944Z,99420.41
2017-08-04T17:30:41.595Z,99421.22
2017-08-04T17:33:09.187Z,99421.11
2017-08-04T17:35:36.806Z,99429.95
2017-08-04T17:38:04.470Z,99426.72
2017-08-04T17:40:32.069Z,99432.39
2017-08-04T17:42:59.683Z,99430.17
2017-08-04T17:45:27.575Z,99438.32
2017-08-04T17:47:55.182Z,99446.06
2017-08-04T17:50:22.784Z,99451.74
2017-08-04T17:52:50.437Z,99454.83
2017-08-04T17:55:18.037Z,99450.63
2017-08-04T17:57:45.633Z,99449.91
2017-08-04T18:00:13.297Z,99460.39
2017-08-04T18:02:52.666Z,99455.70
2017-08-04T18:05:20.333Z,99458.69
2017-08-04T18:07:47.935Z,99461.94
2017-08-04T18:10:16.462Z,99468.34
2017-08-04T18:12:44.196Z,99472.59
2017-08-04T18:15:11.816Z,99471.36
2017-08-04T18:17:39.447Z,99474.72
2017-08-04T18:20:07.102Z,99481.77
2017-08-04T18:22:34.728Z,99477.08
2017-08-04T18:25:02.345Z,99481.67
2017-08-04T18:27:30.021Z,99490.58
2017-08-04T18:29:57.629Z,99490.75
2017-08-04T18:32:25.222Z,99491.98
2017-08-04T18:34:52.893Z,99490.88
2017-08-04T18:37:20.485Z,99499.72
2017-08-04T18:39:48.076Z,99500.55
2017-08-04T18:42:15.802Z,99502.27
2017-08-04T18:44:43.547Z,99503.75
2017-08-04T18:47:11.155Z,99507.27
2017-08-04T18:49:38.806Z,99508.64
2017-08-04T18:52:06.415Z,99514.05
2017-08-04T18:54:34.031Z,99514.64
2017-08-04T18:57:01.719Z,99520.83
2017-08-04T18:59:29.345Z,99518.25
2017-08-04T19:01:56.940Z,99521.80
2017-08-04T19:04:24.654Z,99523.28
2017-08-04T19:06:52.262Z,99529.22
2017-08-04T19:09:19.889Z,99526.97
2017-08-04T19:11:47.607Z,99526.33
2017-08-04T19:14:15.221Z,99538.31
2017-08-04T19:16:42.829Z,99535.98
2017-08-04T19:19:10.487Z,99536.95
2017-08-04T19:21:38.104Z,99541.89
2017-08-04T19:24:05.864Z,99544.70
2017-08-04T19:26:33.622Z,99547.16
2017-08-04T19:29:01.238Z,99543.12
2017-08-04T19:31:29.188Z,99548.38
2017-08-04T19:33:58.613Z,99547.33
2017-08-04T19:36:27.702Z,99543.92
2017-08-04T19:38:56.670Z,99545.86
2017-08-04T19:41:24.887Z,99545.27
2017-08-04T19:43:53.225Z,99543.18
2017-08-04T19:46:21.883Z,99546.88
2017-08-04T19:48:50.480Z,99543.31
2017-08-04T19:51:18.168Z,99535.52
2017-08-04T19:53:46.723Z,99545.77
2017-08-04T19:56:15.247Z,99551.92
2017-08-04T19:58:42.994Z,99549.56
2017-08-04T20:01:11.469Z,99547.62
2017-08-04T20:03:39.210Z,99546.42
2017-08-04T20:06:07.565Z,99544.67
2017-08-04T20:08:36.035Z,99548.05
2017-08-04T20:11:04.939Z,99552.09
2017-08-04T20:13:33.763Z,99554.47
2017-08-04T20:16:01.457Z,99559.06
2017-08-04T20:18:29.100Z,99552.18
2017-08-04T20:20:56.724Z,99553.36
2017-08-04T20:23:24.312Z,99558.40
2017-08-04T20:25:52.441Z,99547.69
2017-08-04T20:28:20.026Z,99551.95
2017-08-04T20:30:47.633Z,99548.45
2017-08-04T20:33:15.284Z,99549.89
2017-08-04T20:35:42.912Z,99552.39
2017-08-04T20:38:10.510Z,99551.75
2017-08-04T20:40:38.198Z,99555.17
2017-08-04T20:43:05.814Z,99558.76
2017-08-04T20:45:33.424Z,99552.24
2017-08-04T20:48:01.093Z,99555.62
2017-08-04T20:50:28.694Z,99557.88
2017-08-04T20:52:56.614Z,99556.42
2017-08-04T20:55:24.311Z,99549.38
2017-08-04T20:57:51.924Z,99548.05
2017-08-04T21:00:19.533Z,99553.68
2017-08-04T21:02:47.193Z,99548.16
2017-08-04T21:05:14.823Z,99558.71
2017-08-04T21:07:42.432Z,99559.34
2017-08-04T21:10:10.102Z,99562.67
2017-08-04T21:12:37.710Z,99561.83
2017-08-04T21:15:05.698Z,99555.59
2017-08-04T21:17:33.774Z,99557.59
2017-08-04T21:20:01.440Z,99557.06
2017-08-04T21:22:29.165Z,99557.31
2017-08-04T21:24:56.963Z,99554.73
2017-08-04T21:27:24.826Z,99562.61
2017-08-04T21:29:52.928Z,99557.61
2017-08-04T21:32:20.570Z,99559.31
2017-08-04T21:34:48.228Z,99555.30
2017-08-04T21:37:16.127Z,99561.38
2017-08-04T21:39:43.964Z,99556.78
2017-08-04T21:42:11.626Z,99561.08
2017-08-04T21:44:39.285Z,99554.48
2017-08-04T21:47:06.957Z,99562.66
2017-08-04T21:49:34.561Z,99560.17
2017-08-04T21:52:02.283Z,99557.78
2017-08-04T21:54:29.937Z,99555.99
2017-08-04T21:56:57.600Z,99561.31
2017-08-04T21:59:25.470Z,99557.51
2017-08-04T22:01:53.315Z,99561.31
2017-08-04T22:04:21.180Z,99553.91
2017-08-04T22:06:48.864Z,99550.47
2017-08-04T22:09:16.513Z,99554.35
2017-08-04T22:11:44.114Z,99549.52
2017-08-04T22:14:11.806Z,99543.47
2017-08-04T22:16:39.921Z,99549.45
2017-08-04T22:19:07.804Z,99547.62
2017-08-04T22:21:35.865Z,99549.36
2017-08-04T22:24:03.836Z,99549.45
2017-08-04T22:26:31.453Z,99548.30
2017-08-04T22:28:59.117Z,99547.23
2017-08-04T22:31:26.968Z,99540.79
2017-08-04T22:33:54.883Z,99554.23
2017-08-04T22:36:22.856Z,99553.40
2017-08-04T22:38:50.885Z,99546.41
2017-08-04T22:41:18.570Z,99551.08
2017-08-04T22:43:46.232Z,99556.02
2017-08-04T22:46:13.855Z,99557.77
2017-08-04T22:48:41.468Z,99560.13
2017-08-04T22:51:09.381Z,99554.16
2017-08-04T22:53:37.011Z,99558.36
2017-08-04T22:56:04.670Z,99550.94
2017-08-04T22:58:32.353Z,99547.33
2017-08-04T23:00:59.970Z,99542.60
2017-08-04T23:03:27.818Z,99544.78
2017-08-04T23:05:55.806Z,99548.20
2017-08-04T23:08:23.552Z,99545.64
2017-08-04T23:10:51.465Z,99546.55
2017-08-04T23:13:19.281Z,99550.42
2017-08-04T23:15:47.034Z,99547.08
2017-08-04T23:18:14.661Z,99549.41
2017-08-04T23:20:42.395Z,99548.97
2017-08-04T23:23:10.124Z,99548.67
2017-08-04T23:25:37.733Z,99549.54
2017-08-04T23:28:05.417Z,99551.69
2017-08-04T23:30:33.006Z,99547.72
2017-08-04T23:33:00.605Z,99553.80
2017-08-04T23:35:28.284Z,99554.05
2017-08-04T23:37:55.905Z,99558.30
2017-08-04T23:40:23.579Z,99552.61
2017-08-04T23:42:51.245Z,99560.55
2017-08-04T23:45:18.857Z,99554.67
2017-08-04T23:47:46.483Z,99556.39
2017-08-04T23:50:14.162Z,99562.03
2017-08-04T23:52:41.773Z,99561.72
2017-08-04T23:55:09.383Z,99561.14
2017-08-04T23:57:37.046Z,99560.02
